createdAt,value
2018-08-07T00:00:01.068Z,45.16
2018-08-07T00:02:31.829Z,45.43
2018-08-07T00:05:02.091Z,45.91
2018-08-07T00:07:32.256Z,45.45
2018-08-07T00:10:03.040Z,45.39
2018-08-07T00:12:33.105Z,45.96
2018-08-07T00:15:03.754Z,45.44
2018-08-07T00:17:33.968Z,45.54
2018-08-07T00:20:04.163Z,46.27
2018-08-07T00:22:34.302Z,45.87
2018-08-07T00:25:05.140Z,46.26
2018-08-07T00:27:35.758Z,46.20
2018-08-07T00:30:07.118Z,46.34
2018-08-07T00:32:37.732Z,45.96
2018-08-07T00:35:10.132Z,46.28
2018-08-07T00:37:40.348Z,46.22
2018-08-07T00:40:13.458Z,45.59
2018-08-07T00:42:44.648Z,46.25
2018-08-07T00:45:19.044Z,45.74
2018-08-07T00:47:49.385Z,45.69
2018-08-07T00:50:20.960Z,45.18
2018-08-07T00:52:52.001Z,44.91
2018-08-07T00:55:22.396Z,46.42
2018-08-07T00:57:52.694Z,44.82
2018-08-07T01:00:22.758Z,45.48
2018-08-07T01:02:52.792Z,45.44
2018-08-07T01:05:22.851Z,45.67
2018-08-07T01:07:53.297Z,45.90
2018-08-07T01:10:24.047Z,45.06
2018-08-07T01:12:54.563Z,45.36
2018-08-07T01:15:24.835Z,45.34
2018-08-07T01:17:55.200Z,45.58
2018-08-07T01:20:25.482Z,45.95
2018-08-07T01:22:55.803Z,45.33
2018-08-07T01:25:26.522Z,45.38
2018-08-07T01:27:56.749Z,45.77
2018-08-07T01:30:28.766Z,45.42
2018-08-07T01:32:59.154Z,45.70
2018-08-07T01:35:31.094Z,46.12
2018-08-07T01:38:01.875Z,45.17
2018-08-07T01:40:32.488Z,46.17
2018-08-07T01:43:02.919Z,45.77
2018-08-07T01:45:32.965Z,45.74
2018-08-07T01:48:03.917Z,45.63
2018-08-07T01:50:33.981Z,45.76
2018-08-07T01:53:04.250Z,46.30
2018-08-07T01:55:34.598Z,46.26
2018-08-07T01:58:04.901Z,46.65
2018-08-07T02:00:35.612Z,45.99
2018-08-07T02:03:06.255Z,45.84
2018-08-07T02:05:36.315Z,46.79
2018-08-07T02:08:06.534Z,46.75
2018-08-07T02:10:36.725Z,46.12
2018-08-07T02:13:07.138Z,46.65
2018-08-07T02:15:37.342Z,46.31
2018-08-07T02:18:07.611Z,46.13
2018-08-07T02:20:37.741Z,46.26
2018-08-07T02:23:08.019Z,45.74
2018-08-07T02:25:38.255Z,46.02
2018-08-07T02:28:08.395Z,46.50
2018-08-07T02:30:38.674Z,46.38
2018-08-07T02:33:08.905Z,46.26
2018-08-07T02:35:40.189Z,46.30
2018-08-07T02:38:10.410Z,45.61
2018-08-07T02:40:40.574Z,45.45
2018-08-07T02:43:10.682Z,45.40
2018-08-07T02:45:41.126Z,46.05
2018-08-07T02:48:10.954Z,46.35
2018-08-07T02:50:41.163Z,46.19
2018-08-07T02:53:11.315Z,46.04
2018-08-07T02:55:41.448Z,46.27
2018-08-07T02:58:11.670Z,45.97
2018-08-07T03:00:43.656Z,46.57
2018-08-07T03:03:14.130Z,46.65
2018-08-07T03:05:44.342Z,46.46
2018-08-07T03:08:14.850Z,46.85
2018-08-07T03:10:45.175Z,46.83
2018-08-07T03:13:15.457Z,46.65
2018-08-07T03:15:45.269Z,46.85
2018-08-07T03:18:15.786Z,46.45
2018-08-07T03:20:45.724Z,46.12
2018-08-07T03:23:16.251Z,46.73
2018-08-07T03:25:46.334Z,45.95
2018-08-07T03:28:16.781Z,46.71
2018-08-07T03:30:46.977Z,46.22
2018-08-07T03:33:17.961Z,46.66
2018-08-07T03:35:48.186Z,46.86
2018-08-07T03:38:19.038Z,46.51
2018-08-07T03:40:49.508Z,46.50
2018-08-07T03:43:19.669Z,46.43
2018-08-07T03:45:50.878Z,45.70
2018-08-07T03:48:21.111Z,46.42
2018-08-07T03:50:52.129Z,45.76
2018-08-07T03:53:22.259Z,46.16
2018-08-07T03:55:52.687Z,46.85
2018-08-07T03:58:23.463Z,46.59
2018-08-07T04:00:54.962Z,47.23
2018-08-07T04:03:25.118Z,46.84
2018-08-07T04:05:56.019Z,47.18
2018-08-07T04:08:26.525Z,47.19
2018-08-07T04:10:56.721Z,47.11
2018-08-07T04:13:27.059Z,46.89
2018-08-07T04:15:57.229Z,46.27
2018-08-07T04:18:28.354Z,47.09
2018-08-07T04:20:58.635Z,46.23
2018-08-07T04:23:29.017Z,46.73
2018-08-07T04:25:59.597Z,46.41
2018-08-07T04:28:29.849Z,46.60
2018-08-07T04:30:59.986Z,47.03
2018-08-07T04:33:43.970Z,46.62
2018-08-07T04:36:14.103Z,46.53
2018-08-07T04:38:44.722Z,47.32
2018-08-07T04:41:15.150Z,46.58
2018-08-07T04:43:45.347Z,46.96
2018-08-07T04:46:15.782Z,47.38
2018-08-07T04:48:46.240Z,46.68
2018-08-07T04:51:16.516Z,46.62
2018-08-07T04:53:46.806Z,46.86
2018-08-07T04:56:16.863Z,46.21
2018-08-07T04:58:47.011Z,46.61
2018-08-07T05:01:17.225Z,46.55
2018-08-07T05:03:47.820Z,46.07
2018-08-07T05:06:17.977Z,46.28
2018-08-07T05:08:48.189Z,46.84
2018-08-07T05:11:18.290Z,46.58
2018-08-07T05:13:48.603Z,46.12
2018-08-07T05:16:18.675Z,47.00
2018-08-07T05:18:48.804Z,46.96
2018-08-07T05:21:18.866Z,46.29
2018-08-07T05:23:49.187Z,46.74
2018-08-07T05:26:19.354Z,46.44
2018-08-07T05:28:49.554Z,47.20
2018-08-07T05:31:19.885Z,47.38
2018-08-07T05:33:50.206Z,46.53
2018-08-07T05:36:21.100Z,47.13
2018-08-07T05:38:51.362Z,47.40
2018-08-07T05:41:21.425Z,47.36
2018-08-07T05:43:51.479Z,47.13
2018-08-07T05:46:22.458Z,47.22
2018-08-07T05:48:53.187Z,47.57
2018-08-07T05:51:23.554Z,47.27
2018-08-07T05:53:54.038Z,47.15
2018-08-07T05:56:24.278Z,46.68
2018-08-07T05:58:54.606Z,46.59
2018-08-07T06:01:24.891Z,47.06
2018-08-07T06:03:55.483Z,47.00
2018-08-07T06:06:25.815Z,47.17
2018-08-07T06:08:56.355Z,46.92
2018-08-07T06:11:26.955Z,46.98
2018-08-07T06:13:57.486Z,46.26
2018-08-07T06:16:27.835Z,46.45
2018-08-07T06:18:58.221Z,46.78
2018-08-07T06:21:28.630Z,46.50
2018-08-07T06:23:58.824Z,46.31
2018-08-07T06:26:28.869Z,46.95
2018-08-07T06:28:58.902Z,46.69
2018-08-07T06:31:29.010Z,46.96
2018-08-07T06:33:59.806Z,48.06
2018-08-07T06:36:30.395Z,47.66
2018-08-07T06:39:00.622Z,48.10
2018-08-07T06:41:30.825Z,46.44
2018-08-07T06:44:01.149Z,46.55
2018-08-07T06:46:31.473Z,47.32
2018-08-07T06:49:01.645Z,46.87
2018-08-07T06:51:31.835Z,47.14
2018-08-07T06:57:02.321Z,46.84
2018-08-07T06:59:32.846Z,47.32
2018-08-07T07:02:03.053Z,46.34
2018-08-07T07:04:33.368Z,46.75
2018-08-07T07:07:03.619Z,46.21
2018-08-07T07:09:33.862Z,47.16
2018-08-07T07:12:05.152Z,47.15
2018-08-07T07:14:35.512Z,47.08
2018-08-07T07:17:05.728Z,47.53
2018-08-07T07:19:35.842Z,47.16
2018-08-07T07:22:06.203Z,47.40
2018-08-07T07:24:36.395Z,47.67
2018-08-07T07:27:06.839Z,46.81
2018-08-07T07:29:37.142Z,46.97
2018-08-07T07:32:07.430Z,47.21
2018-08-07T07:34:37.716Z,48.30
2018-08-07T07:37:07.974Z,47.17
2018-08-07T07:39:38.244Z,48.18
2018-08-07T07:42:08.345Z,47.12
2018-08-07T07:44:38.490Z,48.28
2018-08-07T07:47:09.300Z,48.12
2018-08-07T07:49:39.531Z,48.55
2018-08-07T07:52:10.209Z,48.55
2018-08-07T07:54:40.341Z,48.20
2018-08-07T07:57:10.865Z,48.30
2018-08-07T07:59:40.990Z,48.97
2018-08-07T08:02:11.004Z,48.50
2018-08-07T08:04:41.322Z,48.85
2018-08-07T08:07:11.731Z,48.20
2018-08-07T08:09:41.901Z,48.80
2018-08-07T08:12:12.050Z,48.13
2018-08-07T08:14:42.165Z,48.81
2018-08-07T08:17:12.573Z,47.96
2018-08-07T08:19:42.859Z,47.54
2018-08-07T08:22:13.243Z,47.68
2018-08-07T08:24:43.942Z,47.94
2018-08-07T08:27:14.179Z,48.17
2018-08-07T08:29:44.364Z,48.13
2018-08-07T08:32:14.976Z,47.74
2018-08-07T08:34:45.764Z,47.28
2018-08-07T08:37:16.613Z,47.84
2018-08-07T08:39:46.860Z,47.50
2018-08-07T08:42:16.976Z,47.95
2018-08-07T08:44:47.378Z,47.19
2018-08-07T08:47:17.652Z,47.05
2018-08-07T08:49:48.273Z,47.21
2018-08-07T08:52:18.479Z,47.69
2018-08-07T08:54:48.874Z,47.44
2018-08-07T08:57:19.235Z,47.15
2018-08-07T08:59:49.663Z,47.00
2018-08-07T09:02:20.506Z,46.27
2018-08-07T09:04:51.239Z,47.03
2018-08-07T09:07:21.584Z,46.93
2018-08-07T09:09:51.572Z,46.20
2018-08-07T09:12:22.122Z,46.33
2018-08-07T09:14:52.482Z,46.51
2018-08-07T09:17:22.722Z,46.73
2018-08-07T09:19:52.850Z,45.75
2018-08-07T09:22:23.428Z,45.15
2018-08-07T09:24:53.633Z,45.33
2018-08-07T09:27:23.751Z,45.56
2018-08-07T09:29:55.677Z,46.00
2018-08-07T09:32:26.003Z,45.99
2018-08-07T09:34:56.284Z,45.63
2018-08-07T09:37:26.473Z,45.90
2018-08-07T09:39:57.852Z,45.29
2018-08-07T09:42:28.004Z,45.42
2018-08-07T09:44:58.148Z,45.91
2018-08-07T09:47:29.588Z,45.58
2018-08-07T09:50:00.048Z,46.29
2018-08-07T09:52:30.285Z,46.11
2018-08-07T09:55:01.263Z,45.26
2018-08-07T09:57:31.664Z,45.26
2018-08-07T10:00:02.140Z,45.22
2018-08-07T10:02:40.075Z,45.81
2018-08-07T10:05:10.295Z,45.77
2018-08-07T10:07:41.214Z,44.99
2018-08-07T10:10:11.772Z,44.60
2018-08-07T10:12:42.178Z,45.56
2018-08-07T10:15:12.696Z,45.58
2018-08-07T10:17:43.124Z,44.91
2018-08-07T10:20:13.781Z,44.74
2018-08-07T10:22:44.187Z,45.45
2018-08-07T10:25:16.479Z,44.72
2018-08-07T10:27:47.656Z,45.16
2018-08-07T10:30:21.299Z,44.42
2018-08-07T10:32:51.852Z,45.04
2018-08-07T10:35:22.011Z,44.97
2018-08-07T10:37:52.312Z,43.98
2018-08-07T10:40:23.962Z,44.77
2018-08-07T10:42:54.100Z,43.91
2018-08-07T10:45:25.368Z,44.43
2018-08-07T10:47:55.446Z,43.78
2018-08-07T10:50:27.890Z,44.11
2018-08-07T10:52:58.789Z,43.72
2018-08-07T10:55:29.012Z,43.20
2018-08-07T10:58:00.266Z,43.39
2018-08-07T11:00:32.109Z,43.04
2018-08-07T11:03:02.662Z,42.70
2018-08-07T11:05:32.807Z,41.84
2018-08-07T11:08:03.250Z,41.61
2018-08-07T11:10:33.439Z,41.85
2018-08-07T11:13:03.690Z,42.11
2018-08-07T11:15:35.034Z,42.34
2018-08-07T11:18:05.789Z,42.45
2018-08-07T11:20:35.923Z,42.16
2018-08-07T11:23:06.793Z,41.25
2018-08-07T11:25:36.983Z,40.91
2018-08-07T11:28:07.192Z,41.78
2018-08-07T11:30:37.335Z,40.95
2018-08-07T11:33:07.840Z,40.81
2018-08-07T11:35:38.369Z,40.73
2018-08-07T11:38:08.516Z,40.49
2018-08-07T11:40:38.863Z,41.25
2018-08-07T11:43:09.432Z,40.33
2018-08-07T11:45:40.014Z,40.72
2018-08-07T11:48:10.510Z,40.63
2018-08-07T11:50:41.127Z,40.40
2018-08-07T11:53:11.663Z,40.69
2018-08-07T11:55:42.141Z,40.16
2018-08-07T11:58:12.438Z,40.82
2018-08-07T12:00:42.968Z,40.97
2018-08-07T12:03:13.282Z,40.48
2018-08-07T12:05:43.518Z,40.99
2018-08-07T12:08:13.933Z,40.97
2018-08-07T12:10:44.155Z,39.91
2018-08-07T12:13:14.326Z,39.83
2018-08-07T12:15:44.690Z,39.83
2018-08-07T12:18:14.963Z,39.80
2018-08-07T12:20:46.102Z,39.91
2018-08-07T12:23:17.017Z,39.97
2018-08-07T12:25:47.250Z,40.83
2018-08-07T12:28:17.264Z,40.06
2018-08-07T12:30:47.507Z,40.85
2018-08-07T12:33:18.247Z,40.41
2018-08-07T12:35:49.143Z,40.09
2018-08-07T12:38:19.784Z,39.93
2018-08-07T12:40:49.975Z,39.65
2018-08-07T12:43:20.619Z,40.38
2018-08-07T12:45:51.502Z,39.78
2018-08-07T12:48:21.652Z,39.89
2018-08-07T12:50:52.072Z,40.71
2018-08-07T12:53:22.315Z,39.34
2018-08-07T12:55:52.754Z,39.95
2018-08-07T12:58:22.979Z,39.95
2018-08-07T13:00:53.634Z,39.86
2018-08-07T13:03:23.775Z,40.20
2018-08-07T13:05:54.028Z,40.56
2018-08-07T13:08:24.514Z,40.13
2018-08-07T13:10:55.356Z,39.96
2018-08-07T13:13:25.551Z,40.73
2018-08-07T13:15:56.309Z,40.07
2018-08-07T13:18:26.614Z,40.75
2018-08-07T13:20:56.763Z,40.85
2018-08-07T13:23:27.098Z,40.26
2018-08-07T13:25:57.503Z,40.22
2018-08-07T13:28:28.476Z,40.44
2018-08-07T13:30:58.815Z,41.31
2018-08-07T13:33:29.008Z,40.50
2018-08-07T13:35:59.233Z,40.98
2018-08-07T13:38:30.562Z,41.52
2018-08-07T13:41:00.908Z,40.98
2018-08-07T13:43:31.402Z,41.03
2018-08-07T13:46:01.619Z,40.96
2018-08-07T13:48:32.231Z,41.76
2018-08-07T13:51:02.387Z,41.12
2018-08-07T13:53:32.537Z,40.98
2018-08-07T13:56:03.073Z,41.07
2018-08-07T13:58:34.740Z,41.20
2018-08-07T14:01:04.898Z,41.21
2018-08-07T14:03:35.166Z,41.78
2018-08-07T14:06:05.863Z,41.70
2018-08-07T14:08:36.026Z,42.02
2018-08-07T14:11:06.779Z,41.84
2018-08-07T14:13:37.342Z,41.33
2018-08-07T14:16:07.681Z,41.84
2018-08-07T14:18:37.969Z,41.58
2018-08-07T14:21:08.434Z,42.46
2018-08-07T14:23:38.914Z,42.42
2018-08-07T14:26:09.171Z,41.77
2018-08-07T14:28:39.459Z,41.80
2018-08-07T14:31:10.398Z,42.81
2018-08-07T14:33:40.751Z,42.50
2018-08-07T14:36:11.200Z,42.78
2018-08-07T14:38:41.626Z,42.84
2018-08-07T14:41:12.071Z,42.97
2018-08-07T14:43:42.604Z,42.52
2018-08-07T14:46:12.722Z,42.43
2018-08-07T14:48:43.278Z,42.54
2018-08-07T14:51:14.789Z,42.48
2018-08-07T14:53:45.008Z,43.40
2018-08-07T14:56:15.116Z,42.59
2018-08-07T14:58:45.688Z,42.70
2018-08-07T15:01:15.973Z,42.83
2018-08-07T15:03:46.823Z,42.98
2018-08-07T15:06:17.197Z,43.18
2018-08-07T15:08:47.483Z,43.83
2018-08-07T15:11:17.589Z,43.33
2018-08-07T15:13:47.946Z,44.09
2018-08-07T15:16:18.027Z,44.20
2018-08-07T15:18:48.278Z,44.26
2018-08-07T15:21:18.412Z,44.32
2018-08-07T15:23:49.055Z,44.37
2018-08-07T15:26:19.884Z,44.16
2018-08-07T15:28:49.933Z,44.15
2018-08-07T15:31:20.374Z,43.72
2018-08-07T15:33:50.683Z,44.60
2018-08-07T15:36:20.848Z,43.90
2018-08-07T15:38:51.374Z,43.97
2018-08-07T15:41:21.807Z,44.28
2018-08-07T15:43:51.846Z,44.42
2018-08-07T15:46:22.139Z,45.30
2018-08-07T15:48:52.580Z,45.67
2018-08-07T15:51:22.690Z,45.30
2018-08-07T15:53:52.861Z,46.27
2018-08-07T15:56:23.031Z,46.46
2018-08-07T15:58:53.285Z,47.08
2018-08-07T16:01:23.447Z,46.51
2018-08-07T16:03:53.897Z,46.52
2018-08-07T16:06:24.187Z,45.90
2018-08-07T16:08:54.652Z,46.86
2018-08-07T16:11:24.931Z,47.21
2018-08-07T16:13:54.998Z,47.01
2018-08-07T16:16:25.182Z,48.55
2018-08-07T16:18:55.287Z,48.78
2018-08-07T16:21:25.666Z,49.66
2018-08-07T16:23:56.007Z,49.93
2018-08-07T16:26:26.071Z,50.35
2018-08-07T16:28:56.769Z,50.95
2018-08-07T16:31:27.236Z,50.24
2018-08-07T16:33:57.622Z,49.81
2018-08-07T16:36:28.001Z,49.67
2018-08-07T16:38:58.710Z,49.97
2018-08-07T16:41:28.889Z,50.95
2018-08-07T16:43:59.496Z,50.64
2018-08-07T16:46:30.086Z,51.75
2018-08-07T16:49:00.662Z,51.96
2018-08-07T16:51:31.533Z,52.80
2018-08-07T16:54:02.079Z,52.06
2018-08-07T16:56:32.658Z,52.41
2018-08-07T16:59:03.113Z,51.61
2018-08-07T17:01:33.220Z,51.86
2018-08-07T17:04:03.752Z,51.16
2018-08-07T17:06:34.467Z,51.14
2018-08-07T17:09:06.871Z,51.71
2018-08-07T17:11:37.094Z,51.71
2018-08-07T17:14:07.322Z,51.52
2018-08-07T17:16:37.665Z,51.14
2018-08-07T17:19:08.198Z,51.63
2018-08-07T17:21:38.550Z,51.79
2018-08-07T17:24:09.176Z,51.63
2018-08-07T17:26:39.864Z,51.59
2018-08-07T17:29:10.106Z,50.98
2018-08-07T17:31:40.419Z,51.71
2018-08-07T17:34:10.644Z,52.21
2018-08-07T17:36:40.863Z,52.30
2018-08-07T17:39:11.682Z,52.25
2018-08-07T17:41:41.942Z,51.82
2018-08-07T17:44:12.350Z,51.58
2018-08-07T17:46:42.444Z,52.29
2018-08-07T18:02:12.902Z,52.79
2018-08-07T18:05:13.074Z,54.51
2018-08-07T18:07:44.050Z,53.76
2018-08-07T18:10:13.652Z,54.17
2018-08-07T18:12:42.821Z,53.88
2018-08-07T18:15:13.954Z,53.02
2018-08-07T18:17:43.856Z,53.44
2018-08-07T18:20:17.219Z,53.07
2018-08-07T18:22:46.947Z,52.90
2018-08-07T18:25:16.023Z,51.82
2018-08-07T18:27:45.101Z,52.87
2018-08-07T18:30:17.107Z,52.86
2018-08-07T18:32:46.574Z,52.71
2018-08-07T18:35:18.069Z,53.41
2018-08-07T18:37:47.554Z,53.46
2018-08-07T18:40:16.671Z,53.21
2018-08-07T18:42:45.835Z,52.27
2018-08-07T18:45:15.259Z,52.44
2018-08-07T18:47:45.478Z,52.74
2018-08-07T18:50:16.385Z,52.48
2018-08-07T18:52:45.818Z,52.34
2018-08-07T18:55:15.639Z,51.66
2018-08-07T18:57:46.710Z,52.10
2018-08-07T19:00:17.339Z,50.86
2018-08-07T19:02:46.585Z,51.39
2018-08-07T19:05:17.246Z,50.85
2018-08-07T19:07:46.444Z,51.84
2018-08-07T19:10:15.774Z,51.52
2018-08-07T19:12:45.599Z,51.25
2018-08-07T19:15:15.835Z,51.95
2018-08-07T19:17:45.565Z,51.15
2018-08-07T19:20:16.457Z,50.96
2018-08-07T19:22:45.478Z,50.56
2018-08-07T19:25:14.879Z,50.69
2018-08-07T19:27:44.303Z,52.04
2018-08-07T19:30:15.194Z,52.44
2018-08-07T19:32:44.242Z,51.63
2018-08-07T19:35:14.822Z,52.16
2018-08-07T19:37:43.861Z,53.17
2018-08-07T19:40:14.952Z,52.85
2018-08-07T19:42:44.724Z,52.72
2018-08-07T19:45:14.142Z,53.27
2018-08-07T19:47:43.868Z,53.02
2018-08-07T19:50:14.312Z,53.56
2018-08-07T19:52:43.732Z,53.59
2018-08-07T19:55:15.182Z,53.65
2018-08-07T19:57:44.402Z,53.10
2018-08-07T20:00:19.256Z,53.96
2018-08-07T20:02:49.046Z,53.89
2018-08-07T20:05:18.209Z,53.66
2018-08-07T20:07:47.499Z,53.28
2018-08-07T20:10:17.648Z,53.88
2018-08-07T20:12:47.103Z,53.59
2018-08-07T20:15:18.266Z,54.31
2018-08-07T20:17:47.973Z,54.34
2018-08-07T20:20:17.672Z,53.47
2018-08-07T20:22:47.230Z,53.77
2018-08-07T20:25:16.658Z,53.76
2018-08-07T20:27:45.740Z,54.00
2018-08-07T20:30:16.289Z,54.53
2018-08-07T20:32:46.229Z,53.98
2018-08-07T20:35:15.380Z,54.56
2018-08-07T20:37:44.703Z,53.97
2018-08-07T20:40:17.152Z,54.58
2018-08-07T20:42:46.332Z,54.38
2018-08-07T20:45:15.992Z,55.11
2018-08-07T20:47:45.382Z,54.20
2018-08-07T20:50:18.375Z,54.61
2018-08-07T20:52:47.913Z,54.54
2018-08-07T20:55:17.456Z,55.12
2018-08-07T20:57:46.655Z,54.38
2018-08-07T21:00:22.512Z,55.30
2018-08-07T21:02:51.992Z,54.54
2018-08-07T21:05:21.155Z,55.10
2018-08-07T21:07:51.107Z,55.44
2018-08-07T21:10:21.665Z,54.86
2018-08-07T21:12:50.678Z,55.22
2018-08-07T21:15:20.475Z,55.43
2018-08-07T21:17:49.855Z,55.20
2018-08-07T21:20:20.125Z,55.77
2018-08-07T21:22:49.435Z,55.24
2018-08-07T21:25:21.052Z,55.83
2018-08-07T21:27:51.964Z,55.33
2018-08-07T21:30:23.826Z,55.77
2018-08-07T21:32:52.773Z,55.63
2018-08-07T21:35:23.194Z,55.69
2018-08-07T21:37:52.386Z,55.56
2018-08-07T21:40:22.529Z,56.19
2018-08-07T21:42:52.813Z,56.03
2018-08-07T21:45:22.744Z,55.72
2018-08-07T21:47:51.886Z,55.76
2018-08-07T21:50:22.509Z,56.22
2018-08-07T21:52:51.677Z,55.81
2018-08-07T21:55:21.503Z,55.52
2018-08-07T21:57:50.733Z,56.08
2018-08-07T22:00:41.887Z,55.67
2018-08-07T22:03:11.979Z,56.21
2018-08-07T22:05:41.134Z,55.76
2018-08-07T22:08:11.318Z,56.19
2018-08-07T22:10:40.734Z,56.47
2018-08-07T22:13:10.078Z,55.76
2018-08-07T22:15:39.360Z,56.41
2018-08-07T22:18:09.995Z,55.90
2018-08-07T22:20:39.354Z,56.01
2018-08-07T22:23:08.421Z,56.58
2018-08-07T22:25:37.747Z,55.96
2018-08-07T22:28:07.198Z,56.23
2018-08-07T22:30:36.739Z,56.13
2018-08-07T22:33:06.651Z,56.51
2018-08-07T22:35:35.592Z,56.64
2018-08-07T22:38:04.769Z,55.82
2018-08-07T22:40:34.530Z,56.40
2018-08-07T22:43:03.641Z,55.78
2018-08-07T22:45:33.582Z,56.39
2018-08-07T22:48:02.932Z,56.52
2018-08-07T22:50:31.842Z,56.22
2018-08-07T22:53:00.741Z,55.71
2018-08-07T22:55:30.694Z,56.17
2018-08-07T22:57:59.719Z,55.78
2018-08-07T23:00:29.131Z,55.29
2018-08-07T23:02:58.726Z,56.18
2018-08-07T23:05:30.419Z,56.05
2018-08-07T23:07:59.852Z,55.48
2018-08-07T23:10:29.234Z,55.26
2018-08-07T23:12:58.290Z,55.84
2018-08-07T23:15:27.352Z,55.21
2018-08-07T23:17:56.462Z,54.82
2018-08-07T23:20:27.139Z,55.55
2018-08-07T23:22:57.705Z,55.69
2018-08-07T23:25:26.766Z,54.95
2018-08-07T23:27:55.710Z,55.04
2018-08-07T23:30:24.823Z,54.86
2018-08-07T23:32:54.958Z,54.86
2018-08-07T23:35:24.174Z,54.90
2018-08-07T23:37:53.072Z,55.29
2018-08-07T23:40:23.383Z,54.98
2018-08-07T23:42:52.638Z,55.23
2018-08-07T23:45:21.634Z,55.81
2018-08-07T23:47:50.872Z,55.94
2018-08-07T23:50:20.230Z,55.17
2018-08-07T23:52:49.593Z,56.10
2018-08-07T23:55:18.531Z,56.19
2018-08-07T23:57:47.577Z,56.06
